sensor_id;sensor_type;location;lat;lon;timestamp;P1;durP1;ratioP1;P2;durP2;ratioP2
40717;SDS011;26405;51.850;-2.246;2023-03-01T00:01:44;1.52;;;1.20;;
40717;SDS011;26405;51.850;-2.246;2023-03-01T00:04:09;1.58;;;1.10;;
40717;SDS011;26405;51.850;-2.246;2023-03-01T00:06:34;2.55;;;1.08;;
40717;SDS011;26405;51.850;-2.246;2023-03-01T00:09:00;1.75;;;1.00;;
40717;SDS011;26405;51.850;-2.246;2023-03-01T00:11:26;3.75;;;1.20;;
40717;SDS011;26405;51.850;-2.246;2023-03-01T00:13:52;1.30;;;1.10;;
40717;SDS011;26405;51.850;-2.246;2023-03-01T00:16:22;2.22;;;1.00;;
40717;SDS011;26405;51.850;-2.246;2023-03-01T00:18:48;1.42;;;1.20;;
40717;SDS011;26405;51.850;-2.246;2023-03-01T00:21:13;2.40;;;1.38;;
40717;SDS011;26405;51.850;-2.246;2023-03-01T00:23:39;1.48;;;1.00;;
40717;SDS011;26405;51.850;-2.246;2023-03-01T00:26:08;1.50;;;0.98;;
40717;SDS011;26405;51.850;-2.246;2023-03-01T00:28:34;3.10;;;1.33;;
40717;SDS011;26405;51.850;-2.246;2023-03-01T00:31:06;1.92;;;1.20;;
40717;SDS011;26405;51.850;-2.246;2023-03-01T00:33:32;1.13;;;1.08;;
40717;SDS011;26405;51.850;-2.246;2023-03-01T00:35:58;1.25;;;1.10;;
40717;SDS011;26405;51.850;-2.246;2023-03-01T00:38:23;2.03;;;0.98;;
40717;SDS011;26405;51.850;-2.246;2023-03-01T00:40:48;1.77;;;1.08;;
40717;SDS011;26405;51.850;-2.246;2023-03-01T00:43:14;1.45;;;1.10;;
40717;SDS011;26405;51.850;-2.246;2023-03-01T00:45:39;1.58;;;1.27;;
40717;SDS011;26405;51.850;-2.246;2023-03-01T00:48:04;1.65;;;1.33;;
40717;SDS011;26405;51.850;-2.246;2023-03-01T00:50:30;1.30;;;1.10;;
40717;SDS011;26405;51.850;-2.246;2023-03-01T00:52:55;1.42;;;1.23;;
40717;SDS011;26405;51.850;-2.246;2023-03-01T00:55:21;2.33;;;1.27;;
40717;SDS011;26405;51.850;-2.246;2023-03-01T00:57:46;1.23;;;1.00;;
40717;SDS011;26405;51.850;-2.246;2023-03-01T01:00:12;2.22;;;1.20;;
40717;SDS011;26405;51.850;-2.246;2023-03-01T01:02:37;1.95;;;1.13;;
40717;SDS011;26405;51.850;-2.246;2023-03-01T01:05:02;2.85;;;1.50;;
40717;SDS011;26405;51.850;-2.246;2023-03-01T01:07:28;2.47;;;1.40;;
40717;SDS011;26405;51.850;-2.246;2023-03-01T01:09:53;3.17;;;1.40;;
40717;SDS011;26405;51.850;-2.246;2023-03-01T01:12:18;3.28;;;1.10;;
40717;SDS011;26405;51.850;-2.246;2023-03-01T01:14:44;2.28;;;1.20;;
40717;SDS011;26405;51.850;-2.246;2023-03-01T01:17:09;1.83;;;1.50;;
40717;SDS011;26405;51.850;-2.246;2023-03-01T01:19:34;1.52;;;1.20;;
40717;SDS011;26405;51.850;-2.246;2023-03-01T01:21:59;2.22;;;1.30;;
40717;SDS011;26405;51.850;-2.246;2023-03-01T01:24:25;2.28;;;1.35;;
40717;SDS011;26405;51.850;-2.246;2023-03-01T01:26:50;2.65;;;1.20;;
40717;SDS011;26405;51.850;-2.246;2023-03-01T01:29:15;2.30;;;1.33;;
40717;SDS011;26405;51.850;-2.246;2023-03-01T01:31:41;1.42;;;1.20;;
40717;SDS011;26405;51.850;-2.246;2023-03-01T01:34:07;5.47;;;1.40;;
40717;SDS011;26405;51.850;-2.246;2023-03-01T01:36:37;2.42;;;1.17;;
40717;SDS011;26405;51.850;-2.246;2023-03-01T01:39:02;1.63;;;1.33;;
40717;SDS011;26405;51.850;-2.246;2023-03-01T01:41:28;1.73;;;1.38;;
40717;SDS011;26405;51.850;-2.246;2023-03-01T01:46:38;1.30;;;1.20;;
40717;SDS011;26405;51.850;-2.246;2023-03-01T01:49:07;2.67;;;1.30;;
40717;SDS011;26405;51.850;-2.246;2023-03-01T01:51:37;3.60;;;1.48;;
40717;SDS011;26405;51.850;-2.246;2023-03-01T01:54:06;1.75;;;1.45;;
40717;SDS011;26405;51.850;-2.246;2023-03-01T01:56:33;3.08;;;1.40;;
40717;SDS011;26405;51.850;-2.246;2023-03-01T01:58:59;3.10;;;1.00;;
40717;SDS011;26405;51.850;-2.246;2023-03-01T02:01:26;1.02;;;0.95;;
40717;SDS011;26405;51.850;-2.246;2023-03-01T02:03:51;3.67;;;1.40;;
40717;SDS011;26405;51.850;-2.246;2023-03-01T02:06:18;2.65;;;1.30;;
40717;SDS011;26405;51.850;-2.246;2023-03-01T02:08:44;1.33;;;1.20;;
40717;SDS011;26405;51.850;-2.246;2023-03-01T02:11:10;2.63;;;1.60;;
40717;SDS011;26405;51.850;-2.246;2023-03-01T02:13:37;2.15;;;1.35;;
40717;SDS011;26405;51.850;-2.246;2023-03-01T02:16:04;3.47;;;1.45;;
40717;SDS011;26405;51.850;-2.246;2023-03-01T02:18:30;2.15;;;1.48;;
40717;SDS011;26405;51.850;-2.246;2023-03-01T02:23:20;1.52;;;1.23;;
40717;SDS011;26405;51.850;-2.246;2023-03-01T02:26:02;2.97;;;1.50;;
40717;SDS011;26405;51.850;-2.246;2023-03-01T02:28:31;2.22;;;1.27;;
40717;SDS011;26405;51.850;-2.246;2023-03-01T02:30:58;1.30;;;1.05;;
40717;SDS011;26405;51.850;-2.246;2023-03-01T02:33:41;2.35;;;1.20;;
40717;SDS011;26405;51.850;-2.246;2023-03-01T02:36:12;2.22;;;1.20;;
40717;SDS011;26405;51.850;-2.246;2023-03-01T02:38:39;3.17;;;1.25;;
40717;SDS011;26405;51.850;-2.246;2023-03-01T02:41:05;2.00;;;1.30;;
40717;SDS011;26405;51.850;-2.246;2023-03-01T02:43:31;2.10;;;1.33;;
40717;SDS011;26405;51.850;-2.246;2023-03-01T02:45:58;1.95;;;1.20;;
40717;SDS011;26405;51.850;-2.246;2023-03-01T02:48:24;3.85;;;1.60;;
40717;SDS011;26405;51.850;-2.246;2023-03-01T02:53:22;2.30;;;1.33;;
40717;SDS011;26405;51.850;-2.246;2023-03-01T02:55:50;2.40;;;1.30;;
40717;SDS011;26405;51.850;-2.246;2023-03-01T02:58:15;2.65;;;1.52;;
40717;SDS011;26405;51.850;-2.246;2023-03-01T03:00:41;1.63;;;1.27;;
40717;SDS011;26405;51.850;-2.246;2023-03-01T03:03:19;3.60;;;1.25;;
40717;SDS011;26405;51.850;-2.246;2023-03-01T03:05:44;3.78;;;1.63;;
40717;SDS011;26405;51.850;-2.246;2023-03-01T03:08:10;2.47;;;1.33;;
40717;SDS011;26405;51.850;-2.246;2023-03-01T03:10:38;3.38;;;1.42;;
40717;SDS011;26405;51.850;-2.246;2023-03-01T03:13:05;3.60;;;1.35;;
40717;SDS011;26405;51.850;-2.246;2023-03-01T03:15:30;1.15;;;1.05;;
40717;SDS011;26405;51.850;-2.246;2023-03-01T03:17:57;3.42;;;1.45;;
40717;SDS011;26405;51.850;-2.246;2023-03-01T03:20:23;3.92;;;1.52;;
40717;SDS011;26405;51.850;-2.246;2023-03-01T03:22:50;3.27;;;1.20;;
40717;SDS011;26405;51.850;-2.246;2023-03-01T03:25:16;1.40;;;1.30;;
40717;SDS011;26405;51.850;-2.246;2023-03-01T03:27:42;3.75;;;1.63;;
40717;SDS011;26405;51.850;-2.246;2023-03-01T03:30:09;2.80;;;1.48;;
40717;SDS011;26405;51.850;-2.246;2023-03-01T03:32:36;4.20;;;1.52;;
40717;SDS011;26405;51.850;-2.246;2023-03-01T03:35:03;2.08;;;1.50;;
40717;SDS011;26405;51.850;-2.246;2023-03-01T03:37:35;2.50;;;1.27;;
40717;SDS011;26405;51.850;-2.246;2023-03-01T03:40:18;1.98;;;1.30;;
40717;SDS011;26405;51.850;-2.246;2023-03-01T03:42:44;2.97;;;1.27;;
40717;SDS011;26405;51.850;-2.246;2023-03-01T03:45:09;1.85;;;1.48;;
40717;SDS011;26405;51.850;-2.246;2023-03-01T03:47:34;5.40;;;1.50;;
40717;SDS011;26405;51.850;-2.246;2023-03-01T03:50:00;4.32;;;1.80;;
40717;SDS011;26405;51.850;-2.246;2023-03-01T03:52:25;2.05;;;1.50;;
40717;SDS011;26405;51.850;-2.246;2023-03-01T03:54:50;1.85;;;1.42;;
40717;SDS011;26405;51.850;-2.246;2023-03-01T03:57:15;3.53;;;1.48;;
40717;SDS011;26405;51.850;-2.246;2023-03-01T03:59:41;3.40;;;1.70;;
40717;SDS011;26405;51.850;-2.246;2023-03-01T04:02:06;2.28;;;1.40;;
40717;SDS011;26405;51.850;-2.246;2023-03-01T04:04:36;5.28;;;1.80;;
40717;SDS011;26405;51.850;-2.246;2023-03-01T04:07:01;2.45;;;1.77;;
40717;SDS011;26405;51.850;-2.246;2023-03-01T04:09:28;4.85;;;1.80;;
40717;SDS011;26405;51.850;-2.246;2023-03-01T04:11:55;4.95;;;1.65;;
40717;SDS011;26405;51.850;-2.246;2023-03-01T04:14:20;1.35;;;1.20;;
40717;SDS011;26405;51.850;-2.246;2023-03-01T04:16:45;4.60;;;1.70;;
40717;SDS011;26405;51.850;-2.246;2023-03-01T04:19:11;2.15;;;1.52;;
40717;SDS011;26405;51.850;-2.246;2023-03-01T04:21:36;4.72;;;1.63;;
40717;SDS011;26405;51.850;-2.246;2023-03-01T04:24:01;2.88;;;1.65;;
40717;SDS011;26405;51.850;-2.246;2023-03-01T04:26:28;4.63;;;1.65;;
40717;SDS011;26405;51.850;-2.246;2023-03-01T04:28:54;3.15;;;1.38;;
40717;SDS011;26405;51.850;-2.246;2023-03-01T04:31:19;4.03;;;1.90;;
40717;SDS011;26405;51.850;-2.246;2023-03-01T04:33:53;2.55;;;1.60;;
40717;SDS011;26405;51.850;-2.246;2023-03-01T04:36:19;2.25;;;1.55;;
40717;SDS011;26405;51.850;-2.246;2023-03-01T04:38:45;3.80;;;1.60;;
40717;SDS011;26405;51.850;-2.246;2023-03-01T04:41:14;1.85;;;1.65;;
40717;SDS011;26405;51.850;-2.246;2023-03-01T04:43:40;3.00;;;1.63;;
40717;SDS011;26405;51.850;-2.246;2023-03-01T04:46:07;2.70;;;1.88;;
40717;SDS011;26405;51.850;-2.246;2023-03-01T04:48:34;3.38;;;1.75;;
40717;SDS011;26405;51.850;-2.246;2023-03-01T04:50:59;3.25;;;1.67;;
40717;SDS011;26405;51.850;-2.246;2023-03-01T04:53:25;3.97;;;1.67;;
40717;SDS011;26405;51.850;-2.246;2023-03-01T04:55:51;5.22;;;1.88;;
40717;SDS011;26405;51.850;-2.246;2023-03-01T04:58:16;3.33;;;1.60;;
40717;SDS011;26405;51.850;-2.246;2023-03-01T05:00:41;2.83;;;1.80;;
40717;SDS011;26405;51.850;-2.246;2023-03-01T05:03:07;3.65;;;1.60;;
40717;SDS011;26405;51.850;-2.246;2023-03-01T05:05:33;3.97;;;1.73;;
40717;SDS011;26405;51.850;-2.246;2023-03-01T05:08:01;4.53;;;2.05;;
40717;SDS011;26405;51.850;-2.246;2023-03-01T05:10:27;4.10;;;1.80;;
40717;SDS011;26405;51.850;-2.246;2023-03-01T05:12:58;4.40;;;1.60;;
40717;SDS011;26405;51.850;-2.246;2023-03-01T05:15:24;5.20;;;1.50;;
40717;SDS011;26405;51.850;-2.246;2023-03-01T05:17:54;4.40;;;1.60;;
40717;SDS011;26405;51.850;-2.246;2023-03-01T05:20:20;3.87;;;1.60;;
40717;SDS011;26405;51.850;-2.246;2023-03-01T05:22:48;6.20;;;1.75;;
40717;SDS011;26405;51.850;-2.246;2023-03-01T05:25:14;3.85;;;1.90;;
40717;SDS011;26405;51.850;-2.246;2023-03-01T05:27:39;2.83;;;1.58;;
40717;SDS011;26405;51.850;-2.246;2023-03-01T05:30:04;3.63;;;1.75;;
40717;SDS011;26405;51.850;-2.246;2023-03-01T05:32:39;6.00;;;1.90;;
40717;SDS011;26405;51.850;-2.246;2023-03-01T05:35:04;4.97;;;1.83;;
40717;SDS011;26405;51.850;-2.246;2023-03-01T05:37:30;3.85;;;1.73;;
40717;SDS011;26405;51.850;-2.246;2023-03-01T05:39:55;6.07;;;1.98;;
40717;SDS011;26405;51.850;-2.246;2023-03-01T05:42:21;7.03;;;1.98;;
40717;SDS011;26405;51.850;-2.246;2023-03-01T05:44:46;4.35;;;1.98;;
40717;SDS011;26405;51.850;-2.246;2023-03-01T05:47:11;6.97;;;2.08;;
40717;SDS011;26405;51.850;-2.246;2023-03-01T05:49:36;4.68;;;1.90;;
40717;SDS011;26405;51.850;-2.246;2023-03-01T05:52:02;5.55;;;2.05;;
40717;SDS011;26405;51.850;-2.246;2023-03-01T05:54:27;5.88;;;2.00;;
40717;SDS011;26405;51.850;-2.246;2023-03-01T05:56:52;3.80;;;1.65;;
40717;SDS011;26405;51.850;-2.246;2023-03-01T05:59:17;4.95;;;2.10;;
40717;SDS011;26405;51.850;-2.246;2023-03-01T06:01:43;5.93;;;1.73;;
40717;SDS011;26405;51.850;-2.246;2023-03-01T06:04:08;9.18;;;2.33;;
40717;SDS011;26405;51.850;-2.246;2023-03-01T06:06:34;6.60;;;2.10;;
40717;SDS011;26405;51.850;-2.246;2023-03-01T06:09:02;3.63;;;1.88;;
40717;SDS011;26405;51.850;-2.246;2023-03-01T06:11:27;6.20;;;2.13;;
40717;SDS011;26405;51.850;-2.246;2023-03-01T06:13:53;3.65;;;1.80;;
40717;SDS011;26405;51.850;-2.246;2023-03-01T06:16:18;5.00;;;2.00;;
40717;SDS011;26405;51.850;-2.246;2023-03-01T06:18:43;6.93;;;2.25;;
40717;SDS011;26405;51.850;-2.246;2023-03-01T06:21:08;6.50;;;2.13;;
40717;SDS011;26405;51.850;-2.246;2023-03-01T06:23:34;6.43;;;2.15;;
40717;SDS011;26405;51.850;-2.246;2023-03-01T06:25:59;5.95;;;2.03;;
40717;SDS011;26405;51.850;-2.246;2023-03-01T06:28:25;8.32;;;2.05;;
40717;SDS011;26405;51.850;-2.246;2023-03-01T06:30:50;5.53;;;2.25;;
40717;SDS011;26405;51.850;-2.246;2023-03-01T06:33:16;8.05;;;2.35;;
40717;SDS011;26405;51.850;-2.246;2023-03-01T06:35:44;6.70;;;2.47;;
40717;SDS011;26405;51.850;-2.246;2023-03-01T06:38:09;3.95;;;2.05;;
40717;SDS011;26405;51.850;-2.246;2023-03-01T06:40:34;4.22;;;2.03;;
40717;SDS011;26405;51.850;-2.246;2023-03-01T06:43:00;5.13;;;2.10;;
40717;SDS011;26405;51.850;-2.246;2023-03-01T06:45:25;6.13;;;2.30;;
40717;SDS011;26405;51.850;-2.246;2023-03-01T06:47:51;5.55;;;2.10;;
40717;SDS011;26405;51.850;-2.246;2023-03-01T06:50:16;6.90;;;2.38;;
40717;SDS011;26405;51.850;-2.246;2023-03-01T06:52:42;7.20;;;2.47;;
40717;SDS011;26405;51.850;-2.246;2023-03-01T06:57:34;7.78;;;2.42;;
40717;SDS011;26405;51.850;-2.246;2023-03-01T06:59:59;5.25;;;2.20;;
40717;SDS011;26405;51.850;-2.246;2023-03-01T07:02:25;5.70;;;2.30;;
40717;SDS011;26405;51.850;-2.246;2023-03-01T07:04:50;5.28;;;2.10;;
40717;SDS011;26405;51.850;-2.246;2023-03-01T07:07:16;6.05;;;2.40;;
40717;SDS011;26405;51.850;-2.246;2023-03-01T07:09:46;4.75;;;2.20;;
40717;SDS011;26405;51.850;-2.246;2023-03-01T07:12:12;4.32;;;1.90;;
40717;SDS011;26405;51.850;-2.246;2023-03-01T07:14:37;5.97;;;2.20;;
40717;SDS011;26405;51.850;-2.246;2023-03-01T07:17:02;6.10;;;2.47;;
40717;SDS011;26405;51.850;-2.246;2023-03-01T07:19:28;7.10;;;2.50;;
40717;SDS011;26405;51.850;-2.246;2023-03-01T07:21:53;4.13;;;2.30;;
40717;SDS011;26405;51.850;-2.246;2023-03-01T07:24:20;5.10;;;2.40;;
40717;SDS011;26405;51.850;-2.246;2023-03-01T07:26:48;6.03;;;2.30;;
40717;SDS011;26405;51.850;-2.246;2023-03-01T07:29:13;6.80;;;2.40;;
40717;SDS011;26405;51.850;-2.246;2023-03-01T07:31:38;6.97;;;2.53;;
40717;SDS011;26405;51.850;-2.246;2023-03-01T07:34:03;4.13;;;2.33;;
40717;SDS011;26405;51.850;-2.246;2023-03-01T07:36:29;4.50;;;2.30;;
40717;SDS011;26405;51.850;-2.246;2023-03-01T07:38:54;4.65;;;2.55;;
40717;SDS011;26405;51.850;-2.246;2023-03-01T07:41:20;9.65;;;2.70;;
40717;SDS011;26405;51.850;-2.246;2023-03-01T07:43:46;5.35;;;2.30;;
40717;SDS011;26405;51.850;-2.246;2023-03-01T07:46:11;5.63;;;2.40;;
40717;SDS011;26405;51.850;-2.246;2023-03-01T07:48:36;6.78;;;2.88;;
40717;SDS011;26405;51.850;-2.246;2023-03-01T07:51:02;6.57;;;2.90;;
40717;SDS011;26405;51.850;-2.246;2023-03-01T07:53:28;7.32;;;2.50;;
40717;SDS011;26405;51.850;-2.246;2023-03-01T07:58:28;5.90;;;2.50;;
40717;SDS011;26405;51.850;-2.246;2023-03-01T08:00:53;8.82;;;2.70;;
40717;SDS011;26405;51.850;-2.246;2023-03-01T08:03:18;5.53;;;2.90;;
40717;SDS011;26405;51.850;-2.246;2023-03-01T08:05:43;4.82;;;2.53;;
40717;SDS011;26405;51.850;-2.246;2023-03-01T08:08:09;6.72;;;2.63;;
40717;SDS011;26405;51.850;-2.246;2023-03-01T08:10:34;5.68;;;2.85;;
40717;SDS011;26405;51.850;-2.246;2023-03-01T08:13:00;5.23;;;2.90;;
40717;SDS011;26405;51.850;-2.246;2023-03-01T08:15:26;5.70;;;2.83;;
40717;SDS011;26405;51.850;-2.246;2023-03-01T08:17:51;7.40;;;3.08;;
40717;SDS011;26405;51.850;-2.246;2023-03-01T08:20:16;4.05;;;2.60;;
40717;SDS011;26405;51.850;-2.246;2023-03-01T08:22:42;5.40;;;2.63;;
40717;SDS011;26405;51.850;-2.246;2023-03-01T08:25:07;6.38;;;2.97;;
40717;SDS011;26405;51.850;-2.246;2023-03-01T08:27:32;4.85;;;2.70;;
40717;SDS011;26405;51.850;-2.246;2023-03-01T08:29:58;4.60;;;2.97;;
40717;SDS011;26405;51.850;-2.246;2023-03-01T08:32:23;5.10;;;2.88;;
40717;SDS011;26405;51.850;-2.246;2023-03-01T08:34:48;8.30;;;3.30;;
40717;SDS011;26405;51.850;-2.246;2023-03-01T08:37:13;5.35;;;2.92;;
40717;SDS011;26405;51.850;-2.246;2023-03-01T08:39:39;5.25;;;2.83;;
40717;SDS011;26405;51.850;-2.246;2023-03-01T08:42:04;6.03;;;2.58;;
40717;SDS011;26405;51.850;-2.246;2023-03-01T08:44:29;5.78;;;2.60;;
40717;SDS011;26405;51.850;-2.246;2023-03-01T08:46:55;7.13;;;2.67;;
40717;SDS011;26405;51.850;-2.246;2023-03-01T08:49:20;3.58;;;2.58;;
40717;SDS011;26405;51.850;-2.246;2023-03-01T08:51:46;3.25;;;2.30;;
40717;SDS011;26405;51.850;-2.246;2023-03-01T08:54:13;4.10;;;2.42;;
40717;SDS011;26405;51.850;-2.246;2023-03-01T08:56:39;4.78;;;2.47;;
40717;SDS011;26405;51.850;-2.246;2023-03-01T08:59:05;5.43;;;2.42;;
40717;SDS011;26405;51.850;-2.246;2023-03-01T09:01:30;3.90;;;2.28;;
40717;SDS011;26405;51.850;-2.246;2023-03-01T09:03:55;5.55;;;2.75;;
40717;SDS011;26405;51.850;-2.246;2023-03-01T09:06:20;4.00;;;2.63;;
40717;SDS011;26405;51.850;-2.246;2023-03-01T09:08:47;5.07;;;2.45;;
40717;SDS011;26405;51.850;-2.246;2023-03-01T09:11:14;4.67;;;2.60;;
40717;SDS011;26405;51.850;-2.246;2023-03-01T09:13:40;2.58;;;2.15;;
40717;SDS011;26405;51.850;-2.246;2023-03-01T09:16:06;5.72;;;2.40;;
40717;SDS011;26405;51.850;-2.246;2023-03-01T09:18:32;3.78;;;2.30;;
40717;SDS011;26405;51.850;-2.246;2023-03-01T09:21:16;4.32;;;2.40;;
40717;SDS011;26405;51.850;-2.246;2023-03-01T09:23:45;5.25;;;2.30;;
40717;SDS011;26405;51.850;-2.246;2023-03-01T09:26:15;5.65;;;2.45;;
40717;SDS011;26405;51.850;-2.246;2023-03-01T09:28:47;4.00;;;2.40;;
40717;SDS011;26405;51.850;-2.246;2023-03-01T09:31:13;3.43;;;2.27;;
40717;SDS011;26405;51.850;-2.246;2023-03-01T09:33:40;3.88;;;2.17;;
40717;SDS011;26405;51.850;-2.246;2023-03-01T09:36:07;4.37;;;2.00;;
40717;SDS011;26405;51.850;-2.246;2023-03-01T09:38:32;5.38;;;2.40;;
40717;SDS011;26405;51.850;-2.246;2023-03-01T09:40:58;2.58;;;1.95;;
40717;SDS011;26405;51.850;-2.246;2023-03-01T09:43:26;4.25;;;1.70;;
40717;SDS011;26405;51.850;-2.246;2023-03-01T09:45:53;4.18;;;2.03;;
40717;SDS011;26405;51.850;-2.246;2023-03-01T09:48:19;6.17;;;2.10;;
40717;SDS011;26405;51.850;-2.246;2023-03-01T09:50:47;3.85;;;2.00;;
40717;SDS011;26405;51.850;-2.246;2023-03-01T09:53:16;3.22;;;1.80;;
40717;SDS011;26405;51.850;-2.246;2023-03-01T09:55:50;6.03;;;2.10;;
40717;SDS011;26405;51.850;-2.246;2023-03-01T10:00:46;3.85;;;1.88;;
40717;SDS011;26405;51.850;-2.246;2023-03-01T10:03:24;7.47;;;1.83;;
40717;SDS011;26405;51.850;-2.246;2023-03-01T10:05:59;5.20;;;2.10;;
40717;SDS011;26405;51.850;-2.246;2023-03-01T10:08:27;4.35;;;2.13;;
40717;SDS011;26405;51.850;-2.246;2023-03-01T10:10:54;2.60;;;1.88;;
40717;SDS011;26405;51.850;-2.246;2023-03-01T10:14:03;5.10;;;2.10;;
40717;SDS011;26405;51.850;-2.246;2023-03-01T10:16:13;3.67;;;1.88;;
40717;SDS011;26405;51.850;-2.246;2023-03-01T10:18:39;3.30;;;2.10;;
40717;SDS011;26405;51.850;-2.246;2023-03-01T10:21:13;4.13;;;1.98;;
40717;SDS011;26405;51.850;-2.246;2023-03-01T10:23:39;4.45;;;2.20;;
40717;SDS011;26405;51.850;-2.246;2023-03-01T10:28:44;5.15;;;2.20;;
40717;SDS011;26405;51.850;-2.246;2023-03-01T10:31:13;6.65;;;2.40;;
40717;SDS011;26405;51.850;-2.246;2023-03-01T10:33:40;5.88;;;2.20;;
40717;SDS011;26405;51.850;-2.246;2023-03-01T10:36:06;4.30;;;2.30;;
40717;SDS011;26405;51.850;-2.246;2023-03-01T10:38:33;5.22;;;2.40;;
40717;SDS011;26405;51.850;-2.246;2023-03-01T10:41:11;8.07;;;2.60;;
40717;SDS011;26405;51.850;-2.246;2023-03-01T10:46:27;7.53;;;2.55;;
40717;SDS011;26405;51.850;-2.246;2023-03-01T10:51:30;3.70;;;2.63;;
40717;SDS011;26405;51.850;-2.246;2023-03-01T10:53:55;6.07;;;2.80;;
40717;SDS011;26405;51.850;-2.246;2023-03-01T10:56:21;7.43;;;2.90;;
40717;SDS011;26405;51.850;-2.246;2023-03-01T11:01:25;7.03;;;3.10;;
40717;SDS011;26405;51.850;-2.246;2023-03-01T11:06:31;4.65;;;2.63;;
40717;SDS011;26405;51.850;-2.246;2023-03-01T11:08:57;3.30;;;2.40;;
40717;SDS011;26405;51.850;-2.246;2023-03-01T11:11:37;4.85;;;2.70;;
40717;SDS011;26405;51.850;-2.246;2023-03-01T11:14:05;2.85;;;2.40;;
40717;SDS011;26405;51.850;-2.246;2023-03-01T11:16:32;3.67;;;2.47;;
40717;SDS011;26405;51.850;-2.246;2023-03-01T11:19:04;3.63;;;2.58;;
40717;SDS011;26405;51.850;-2.246;2023-03-01T11:21:30;3.55;;;2.70;;
40717;SDS011;26405;51.850;-2.246;2023-03-01T11:23:58;5.10;;;2.65;;
40717;SDS011;26405;51.850;-2.246;2023-03-01T11:26:25;5.88;;;2.60;;
40717;SDS011;26405;51.850;-2.246;2023-03-01T11:28:52;5.47;;;2.80;;
40717;SDS011;26405;51.850;-2.246;2023-03-01T11:31:19;3.05;;;2.17;;
40717;SDS011;26405;51.850;-2.246;2023-03-01T11:38:42;4.45;;;2.17;;
40717;SDS011;26405;51.850;-2.246;2023-03-01T11:41:10;3.05;;;2.28;;
40717;SDS011;26405;51.850;-2.246;2023-03-01T11:46:17;3.83;;;2.33;;
40717;SDS011;26405;51.850;-2.246;2023-03-01T11:48:50;6.55;;;2.58;;
40717;SDS011;26405;51.850;-2.246;2023-03-01T11:51:23;4.95;;;2.50;;
40717;SDS011;26405;51.850;-2.246;2023-03-01T11:53:51;5.78;;;2.28;;
40717;SDS011;26405;51.850;-2.246;2023-03-01T11:56:40;6.15;;;2.40;;
40717;SDS011;26405;51.850;-2.246;2023-03-01T12:24:27;7.13;;;2.40;;
40717;SDS011;26405;51.850;-2.246;2023-03-01T12:32:25;5.47;;;2.45;;
40717;SDS011;26405;51.850;-2.246;2023-03-01T12:37:33;4.18;;;2.08;;
40717;SDS011;26405;51.850;-2.246;2023-03-01T12:46:19;6.60;;;2.50;;
40717;SDS011;26405;51.850;-2.246;2023-03-01T12:50:47;4.15;;;2.30;;
40717;SDS011;26405;51.850;-2.246;2023-03-01T12:53:20;5.50;;;2.35;;
40717;SDS011;26405;51.850;-2.246;2023-03-01T12:55:46;4.05;;;2.30;;
40717;SDS011;26405;51.850;-2.246;2023-03-01T12:58:20;4.38;;;2.50;;
40717;SDS011;26405;51.850;-2.246;2023-03-01T13:03:32;4.22;;;2.17;;
40717;SDS011;26405;51.850;-2.246;2023-03-01T13:06:21;3.63;;;2.22;;
40717;SDS011;26405;51.850;-2.246;2023-03-01T13:08:56;5.40;;;2.40;;
40717;SDS011;26405;51.850;-2.246;2023-03-01T13:11:25;3.95;;;2.33;;
40717;SDS011;26405;51.850;-2.246;2023-03-01T13:13:50;4.90;;;2.38;;
40717;SDS011;26405;51.850;-2.246;2023-03-01T13:16:21;5.65;;;2.20;;
40717;SDS011;26405;51.850;-2.246;2023-03-01T13:18:47;4.10;;;2.17;;
40717;SDS011;26405;51.850;-2.246;2023-03-01T13:21:12;6.13;;;2.20;;
40717;SDS011;26405;51.850;-2.246;2023-03-01T13:23:53;5.20;;;1.80;;
40717;SDS011;26405;51.850;-2.246;2023-03-01T13:26:18;4.78;;;1.90;;
40717;SDS011;26405;51.850;-2.246;2023-03-01T13:33:47;4.53;;;2.00;;
40717;SDS011;26405;51.850;-2.246;2023-03-01T13:39:00;2.97;;;1.92;;
40717;SDS011;26405;51.850;-2.246;2023-03-01T13:44:12;6.32;;;2.30;;
40717;SDS011;26405;51.850;-2.246;2023-03-01T13:46:43;2.30;;;1.90;;
40717;SDS011;26405;51.850;-2.246;2023-03-01T13:49:09;3.22;;;1.98;;
40717;SDS011;26405;51.850;-2.246;2023-03-01T13:51:36;4.43;;;2.00;;
40717;SDS011;26405;51.850;-2.246;2023-03-01T13:54:01;3.53;;;1.85;;
40717;SDS011;26405;51.850;-2.246;2023-03-01T13:56:28;4.78;;;2.10;;
40717;SDS011;26405;51.850;-2.246;2023-03-01T14:01:38;3.05;;;2.03;;
40717;SDS011;26405;51.850;-2.246;2023-03-01T14:04:03;2.80;;;1.75;;
40717;SDS011;26405;51.850;-2.246;2023-03-01T14:06:42;5.53;;;2.20;;
40717;SDS011;26405;51.850;-2.246;2023-03-01T14:09:23;4.50;;;2.30;;
40717;SDS011;26405;51.850;-2.246;2023-03-01T14:19:29;7.53;;;2.60;;
40717;SDS011;26405;51.850;-2.246;2023-03-01T14:21:59;7.80;;;2.40;;
40717;SDS011;26405;51.850;-2.246;2023-03-01T14:24:27;5.15;;;2.50;;
40717;SDS011;26405;51.850;-2.246;2023-03-01T14:26:52;6.68;;;2.30;;
40717;SDS011;26405;51.850;-2.246;2023-03-01T14:29:25;5.60;;;2.60;;
40717;SDS011;26405;51.850;-2.246;2023-03-01T14:31:50;4.45;;;2.35;;
40717;SDS011;26405;51.850;-2.246;2023-03-01T14:34:22;5.43;;;2.50;;
40717;SDS011;26405;51.850;-2.246;2023-03-01T14:36:48;9.30;;;2.50;;
40717;SDS011;26405;51.850;-2.246;2023-03-01T14:39:17;6.68;;;2.40;;
40717;SDS011;26405;51.850;-2.246;2023-03-01T14:41:43;8.18;;;2.58;;
40717;SDS011;26405;51.850;-2.246;2023-03-01T14:44:12;8.05;;;2.70;;
40717;SDS011;26405;51.850;-2.246;2023-03-01T14:46:40;4.82;;;2.30;;
40717;SDS011;26405;51.850;-2.246;2023-03-01T14:49:15;4.93;;;2.10;;
40717;SDS011;26405;51.850;-2.246;2023-03-01T14:51:42;5.67;;;2.13;;
40717;SDS011;26405;51.850;-2.246;2023-03-01T14:54:18;6.57;;;2.20;;
40717;SDS011;26405;51.850;-2.246;2023-03-01T14:56:45;6.55;;;2.13;;
40717;SDS011;26405;51.850;-2.246;2023-03-01T14:59:10;5.70;;;2.45;;
40717;SDS011;26405;51.850;-2.246;2023-03-01T15:01:36;6.65;;;2.30;;
40717;SDS011;26405;51.850;-2.246;2023-03-01T15:04:01;8.10;;;2.33;;
40717;SDS011;26405;51.850;-2.246;2023-03-01T15:06:27;5.95;;;2.30;;
40717;SDS011;26405;51.850;-2.246;2023-03-01T15:08:53;7.45;;;2.42;;
40717;SDS011;26405;51.850;-2.246;2023-03-01T15:11:29;5.35;;;2.13;;
40717;SDS011;26405;51.850;-2.246;2023-03-01T15:13:55;8.05;;;2.72;;
40717;SDS011;26405;51.850;-2.246;2023-03-01T15:18:46;4.77;;;2.30;;
40717;SDS011;26405;51.850;-2.246;2023-03-01T15:23:40;6.57;;;2.22;;
40717;SDS011;26405;51.850;-2.246;2023-03-01T15:26:05;6.50;;;2.22;;
40717;SDS011;26405;51.850;-2.246;2023-03-01T15:28:32;6.03;;;2.22;;
40717;SDS011;26405;51.850;-2.246;2023-03-01T15:31:00;7.90;;;2.10;;
40717;SDS011;26405;51.850;-2.246;2023-03-01T15:35:58;4.60;;;2.17;;
40717;SDS011;26405;51.850;-2.246;2023-03-01T15:41:27;7.78;;;2.80;;
40717;SDS011;26405;51.850;-2.246;2023-03-01T15:43:53;7.97;;;2.75;;
40717;SDS011;26405;51.850;-2.246;2023-03-01T15:48:51;5.82;;;2.40;;
40717;SDS011;26405;51.850;-2.246;2023-03-01T15:53:43;5.97;;;2.17;;
40717;SDS011;26405;51.850;-2.246;2023-03-01T15:56:12;6.45;;;2.45;;
40717;SDS011;26405;51.850;-2.246;2023-03-01T15:58:37;4.17;;;2.13;;
40717;SDS011;26405;51.850;-2.246;2023-03-01T16:01:02;6.55;;;2.30;;
40717;SDS011;26405;51.850;-2.246;2023-03-01T16:03:28;5.30;;;2.33;;
40717;SDS011;26405;51.850;-2.246;2023-03-01T16:05:53;6.63;;;2.42;;
40717;SDS011;26405;51.850;-2.246;2023-03-01T16:08:18;7.95;;;2.60;;
40717;SDS011;26405;51.850;-2.246;2023-03-01T16:10:44;7.18;;;2.50;;
40717;SDS011;26405;51.850;-2.246;2023-03-01T16:13:10;7.20;;;2.38;;
40717;SDS011;26405;51.850;-2.246;2023-03-01T16:15:35;5.88;;;2.33;;
40717;SDS011;26405;51.850;-2.246;2023-03-01T16:18:01;6.65;;;2.60;;
40717;SDS011;26405;51.850;-2.246;2023-03-01T16:20:26;7.22;;;2.75;;
40717;SDS011;26405;51.850;-2.246;2023-03-01T16:22:52;7.53;;;2.60;;
40717;SDS011;26405;51.850;-2.246;2023-03-01T16:25:18;4.85;;;2.35;;
40717;SDS011;26405;51.850;-2.246;2023-03-01T16:27:44;7.57;;;2.60;;
40717;SDS011;26405;51.850;-2.246;2023-03-01T16:30:10;7.95;;;2.33;;